Aeroporto :
LOGIN :

Iscrizione | Disclaimer

   EN    FR    IT 

 










Sommario :    VFR   VFR Marginale   IFR   IFR Intensivo   IFR Molto Intensivo
Visibilità : 
Base nubi : 
>= 8 km
>= 3000ft
5 / 8 km
1000 / 3000 ft
1500m / 5 km
500 / 1000 ft
800 / 1500m
200 / 500 ft
< 800m
< 200 ft
Simboli :   Temporali  Nebbia  Neve Forte  Precipitazioni Forti  Vento > 20 kt
SIGMETs :   Varie  Temporali  Ghiacco  Turbolenza  Onda orograficha  Ceneri Vulcaniche







- Altitudine del aeroporto : 17 ft
- Codice IATA : GRQ


EHGG - Groningen Eelde

ULTIMO METAR :
  • 202055Z AUTO 24007KT 5000 BR NSC 08/07 Q1033 TEMPO 4000 BR

METARs OBSOLETI :
  • 202025Z AUTO 22006KT 6000 NSC 06/06 Q1033 TEMPO 4000 BR
  • 201955Z AUTO 22005KT 5000 BR NSC 06/05 Q1033 TEMPO 2500
  • 201925Z AUTO 22006KT 6000 SCT017 06/05 Q1032 NOSIG
  • 201855Z AUTO 21004KT 7000 NSC 07/06 Q1032 NOSIG
  • 201825Z AUTO 21006KT 9000 SCT012 SCT015 09/08 Q1032 NOSIG

TAF TAF EHGG
Valido dal 20 a 18 ore il 22 a 00 ore UTC


201709Z 2018/2124 23009KT 9999 BKN025
BECMG 2020/2023 4000 BR
PROB40 2105/2110 BKN007
BECMG 2108/2111 9999 NSW
Nessun NOTAM noto per questo aeroporto.



MetMap, La meteo Aeronautica in un colpo d'occhio ! - Copyright ORBIFLY Dicembre 2007 - Disclaimer

ORBIFLY MET'MAP TEAM :

Programmazione e sviluppo : Alexandra Zaïnal
Concezione e sviluppo : Baudouin d'Aumeries
Co-Programmazione e sviluppo : Marc-Olivier Méhu
Supporto tecnico e logistico : Manuel Goepfert
Aiuto per la traduzione : Arnaldo La Scala

Contatto : metmap@orbifly.com




FONTI E CREDITI :

   NOAA